createdAt,value
2024-02-02T00:00:17.616Z,98155.98
2024-02-02T00:03:06.143Z,98151.45
2024-02-02T00:05:34.760Z,98149.71
2024-02-02T00:08:02.971Z,98148.16
2024-02-02T00:10:31.502Z,98150.54
2024-02-02T00:12:59.968Z,98149.66
2024-02-02T00:15:28.618Z,98146.17
2024-02-02T00:17:57.390Z,98138.67
2024-02-02T00:20:25.903Z,98131.80
2024-02-02T00:22:56.621Z,98133.55
2024-02-02T00:25:25.474Z,98134.33
2024-02-02T00:27:54.133Z,98129.32
2024-02-02T00:30:22.777Z,98130.47
2024-02-02T00:32:51.256Z,98135.38
2024-02-02T00:35:19.713Z,98133.74
2024-02-02T00:37:48.294Z,98132.61
2024-02-02T00:40:19.944Z,98126.38
2024-02-02T00:42:49.502Z,98123.84
2024-02-02T00:45:17.914Z,98126.95
2024-02-02T00:47:46.673Z,98128.84
2024-02-02T00:50:15.081Z,98124.08
2024-02-02T00:52:44.137Z,98119.14
2024-02-02T00:55:12.797Z,98121.55
2024-02-02T00:57:41.110Z,98125.55
2024-02-02T01:00:12.036Z,98121.02
2024-02-02T01:02:40.852Z,98122.92
2024-02-02T01:05:12.554Z,98122.32
2024-02-02T01:07:41.380Z,98129.70
2024-02-02T01:10:13.828Z,98121.39
2024-02-02T01:12:42.137Z,98116.02
2024-02-02T01:15:10.617Z,98111.92
2024-02-02T01:17:39.000Z,98111.48
2024-02-02T01:20:08.285Z,98106.69
2024-02-02T01:22:36.371Z,98102.81
2024-02-02T01:25:04.963Z,98108.08
2024-02-02T01:27:34.833Z,98112.48
2024-02-02T01:30:04.288Z,98118.48
2024-02-02T01:32:32.425Z,98120.22
2024-02-02T01:35:00.604Z,98119.53
2024-02-02T01:37:29.061Z,98113.59
2024-02-02T01:39:57.678Z,98111.05
2024-02-02T01:42:26.107Z,98110.81
2024-02-02T01:44:54.288Z,98108.17
2024-02-02T01:47:22.628Z,98104.22
2024-02-02T01:49:50.988Z,98105.02
2024-02-02T01:52:19.465Z,98108.30
2024-02-02T01:54:47.726Z,98110.73
2024-02-02T01:57:16.190Z,98114.23
2024-02-02T01:59:44.688Z,98114.39
2024-02-02T02:02:13.791Z,98114.39
2024-02-02T02:04:42.498Z,98118.39
2024-02-02T02:07:10.963Z,98120.52
2024-02-02T02:09:39.317Z,98121.42
2024-02-02T02:12:08.055Z,98126.86
2024-02-02T02:14:36.545Z,98131.38
2024-02-02T02:17:05.126Z,98128.97
2024-02-02T02:29:03.188Z,98135.15
2024-02-02T02:31:31.435Z,98138.65
2024-02-02T02:33:59.948Z,98142.08
2024-02-02T02:36:28.587Z,98142.05
2024-02-02T02:38:57.147Z,98143.20
2024-02-02T02:41:26.121Z,98145.53
2024-02-02T02:43:54.189Z,98146.04
2024-02-02T02:46:22.406Z,98150.57
2024-02-02T02:48:51.339Z,98150.25
2024-02-02T02:51:19.932Z,98151.90
2024-02-02T02:53:48.240Z,98152.52
2024-02-02T02:56:16.640Z,98156.70
2024-02-02T02:58:45.236Z,98159.77
2024-02-02T03:01:13.747Z,98159.65
2024-02-02T03:03:41.930Z,98157.67
2024-02-02T03:06:10.452Z,98158.52
2024-02-02T03:08:38.943Z,98160.64
2024-02-02T03:11:07.129Z,98159.42
2024-02-02T03:13:35.614Z,98161.23
2024-02-02T03:16:04.421Z,98161.20
2024-02-02T03:18:32.762Z,98164.29
2024-02-02T03:21:01.203Z,98166.17
2024-02-02T03:23:30.230Z,98169.12
2024-02-02T03:25:58.388Z,98173.77
2024-02-02T03:28:26.441Z,98172.71
2024-02-02T03:30:54.787Z,98175.96
2024-02-02T03:33:23.322Z,98172.13
2024-02-02T03:35:51.743Z,98176.76
2024-02-02T03:38:19.949Z,98176.39
2024-02-02T03:40:48.220Z,98183.40
2024-02-02T03:43:16.432Z,98194.83
2024-02-02T03:45:44.759Z,98198.70
2024-02-02T03:48:13.349Z,98205.67
2024-02-02T03:50:41.802Z,98205.71
2024-02-02T03:53:10.588Z,98203.26
2024-02-02T03:55:39.048Z,98214.94
2024-02-02T03:58:07.111Z,98216.85
2024-02-02T04:00:35.627Z,98222.65
2024-02-02T04:03:04.784Z,98220.31
2024-02-02T04:05:33.244Z,98220.07
2024-02-02T04:08:01.752Z,98221.42
2024-02-02T04:10:30.249Z,98222.27
2024-02-02T04:12:59.161Z,98223.05
2024-02-02T04:15:28.623Z,98223.48
2024-02-02T04:17:57.488Z,98223.77
2024-02-02T04:20:25.978Z,98226.95
2024-02-02T04:22:54.334Z,98229.86
2024-02-02T04:25:23.057Z,98232.46
2024-02-02T04:27:51.536Z,98238.98
2024-02-02T04:30:20.276Z,98241.77
2024-02-02T04:32:48.803Z,98245.11
2024-02-02T04:35:17.143Z,98242.76
2024-02-02T04:37:45.477Z,98245.57
2024-02-02T04:40:13.731Z,98248.17
2024-02-02T04:42:42.207Z,98250.13
2024-02-02T04:45:10.761Z,98251.81
2024-02-02T04:47:39.228Z,98257.97
2024-02-02T04:50:08.064Z,98258.79
2024-02-02T04:52:36.392Z,98264.61
2024-02-02T04:55:05.959Z,98260.05
2024-02-02T04:57:34.227Z,98260.51
2024-02-02T05:00:02.723Z,98263.96
2024-02-02T05:02:32.947Z,98265.32
2024-02-02T05:05:01.318Z,98268.69
2024-02-02T05:07:29.693Z,98272.10
2024-02-02T05:09:58.151Z,98271.45
2024-02-02T05:12:26.193Z,98271.08
2024-02-02T05:14:55.193Z,98271.36
2024-02-02T05:17:23.452Z,98277.00
2024-02-02T05:19:51.968Z,98282.99
2024-02-02T05:22:20.318Z,98290.48
2024-02-02T05:24:49.583Z,98292.18
2024-02-02T05:27:17.906Z,98295.17
2024-02-02T05:29:46.354Z,98303.17
2024-02-02T05:32:14.496Z,98305.77
2024-02-02T05:34:43.408Z,98300.05
2024-02-02T05:37:11.947Z,98313.60
2024-02-02T05:39:40.346Z,98325.97
2024-02-02T05:42:08.981Z,98337.02
2024-02-02T05:44:38.239Z,98338.95
2024-02-02T05:47:06.566Z,98343.27
2024-02-02T05:49:35.015Z,98347.04
2024-02-02T05:52:03.436Z,98352.34
2024-02-02T05:54:32.938Z,98351.47
2024-02-02T05:57:01.360Z,98351.39
2024-02-02T05:59:29.587Z,98357.05
2024-02-02T06:01:57.904Z,98364.64
2024-02-02T06:04:26.420Z,98359.09
2024-02-02T06:06:54.892Z,98364.73
2024-02-02T06:09:23.665Z,98364.95
2024-02-02T06:11:52.048Z,98367.67
2024-02-02T06:14:20.176Z,98372.14
2024-02-02T06:16:49.577Z,98374.16
2024-02-02T06:19:18.254Z,98374.45
2024-02-02T06:21:46.629Z,98383.38
2024-02-02T06:24:15.344Z,98380.45
2024-02-02T06:26:44.571Z,98379.54
2024-02-02T06:29:12.929Z,98383.58
2024-02-02T06:31:41.301Z,98389.43
2024-02-02T06:34:12.617Z,98391.27
2024-02-02T06:36:42.315Z,98398.61
2024-02-02T06:39:10.791Z,98402.14
2024-02-02T06:41:39.177Z,98409.56
2024-02-02T06:44:07.460Z,98414.99
2024-02-02T06:46:35.877Z,98417.05
2024-02-02T06:49:04.423Z,98413.83
2024-02-02T06:51:33.095Z,98410.69
2024-02-02T06:54:01.400Z,98411.27
2024-02-02T06:56:46.416Z,98409.10
2024-02-02T06:59:14.857Z,98410.14
2024-02-02T07:01:42.948Z,98415.06
2024-02-02T07:04:15.163Z,98417.98
2024-02-02T07:06:43.694Z,98422.45
2024-02-02T07:09:24.307Z,98423.70
2024-02-02T07:11:57.816Z,98421.90
2024-02-02T07:14:34.804Z,98422.08
2024-02-02T07:17:03.749Z,98418.37
2024-02-02T07:19:38.955Z,98423.91
2024-02-02T07:22:39.884Z,98422.95
2024-02-02T07:25:17.200Z,98427.06
2024-02-02T07:27:48.928Z,98430.17
2024-02-02T07:30:32.605Z,98432.36
2024-02-02T07:33:01.908Z,98434.59
2024-02-02T07:35:34.612Z,98431.20
2024-02-02T07:38:06.537Z,98428.80
2024-02-02T07:40:49.936Z,98429.98
2024-02-02T07:43:18.396Z,98434.77
2024-02-02T07:45:46.658Z,98434.27
2024-02-02T07:48:14.891Z,98435.55
2024-02-02T07:50:43.221Z,98435.14
2024-02-02T07:53:11.704Z,98442.84
2024-02-02T07:55:40.712Z,98451.04
2024-02-02T07:58:09.281Z,98452.84
2024-02-02T08:00:37.819Z,98445.92
2024-02-02T08:03:10.554Z,98453.86
2024-02-02T08:05:40.773Z,98458.03
2024-02-02T08:08:09.539Z,98462.31
2024-02-02T08:10:43.261Z,98465.02
2024-02-02T08:13:13.844Z,98466.25
2024-02-02T08:15:42.523Z,98464.31
2024-02-02T08:18:12.180Z,98467.48
2024-02-02T08:20:40.766Z,98475.38
2024-02-02T08:23:09.057Z,98475.44
2024-02-02T08:25:37.233Z,98482.60
2024-02-02T08:28:06.280Z,98484.60
2024-02-02T08:30:34.476Z,98488.45
2024-02-02T08:33:03.053Z,98495.36
2024-02-02T08:35:31.462Z,98497.81
2024-02-02T08:38:01.381Z,98504.08
2024-02-02T08:40:41.040Z,98504.34
2024-02-02T08:43:14.103Z,98505.41
2024-02-02T08:45:42.288Z,98510.55
2024-02-02T08:48:21.044Z,98513.61
2024-02-02T08:50:49.663Z,98519.08
2024-02-02T08:53:18.261Z,98518.77
2024-02-02T08:55:50.822Z,98518.77
2024-02-02T08:58:28.570Z,98524.20
2024-02-02T09:00:56.798Z,98533.86
2024-02-02T09:03:48.494Z,98536.66
2024-02-02T09:06:44.576Z,98540.95
2024-02-02T09:09:13.598Z,98544.79
2024-02-02T09:11:42.332Z,98542.54
2024-02-02T09:14:15.684Z,98537.07
2024-02-02T09:16:45.777Z,98540.98
2024-02-02T09:19:28.046Z,98547.84
2024-02-02T09:21:59.006Z,98548.09
2024-02-02T09:24:43.283Z,98555.10
2024-02-02T09:27:33.401Z,98560.89
2024-02-02T09:30:02.308Z,98562.50
2024-02-02T09:32:30.916Z,98566.06
2024-02-02T09:35:01.255Z,98561.77
2024-02-02T09:37:51.193Z,98565.02
2024-02-02T09:40:40.549Z,98567.42
2024-02-02T09:43:14.091Z,98568.17
2024-02-02T09:45:55.042Z,98564.79
2024-02-02T09:48:31.736Z,98565.56
2024-02-02T09:51:18.747Z,98562.63
2024-02-02T09:53:52.814Z,98555.98
2024-02-02T09:56:27.947Z,98554.62
2024-02-02T09:59:23.487Z,98554.71
2024-02-02T10:02:04.033Z,98560.13
2024-02-02T10:05:01.322Z,98556.35
2024-02-02T10:07:47.974Z,98555.98
2024-02-02T10:10:22.027Z,98552.77
2024-02-02T10:13:17.620Z,98550.17
2024-02-02T10:16:08.843Z,98550.55
2024-02-02T10:18:50.632Z,98555.88
2024-02-02T10:21:29.611Z,98545.37
2024-02-02T10:24:18.828Z,98537.65
2024-02-02T10:27:25.932Z,98536.71
2024-02-02T10:30:29.041Z,98538.23
2024-02-02T10:33:21.629Z,98535.55
2024-02-02T10:35:56.394Z,98539.74
2024-02-02T10:38:59.685Z,98537.96
2024-02-02T10:41:46.491Z,98535.44
2024-02-02T10:44:50.727Z,98533.11
2024-02-02T10:47:46.101Z,98533.51
2024-02-02T10:50:50.636Z,98531.56
2024-02-02T10:53:24.969Z,98534.45
2024-02-02T10:56:02.181Z,98529.06
2024-02-02T10:58:48.762Z,98531.10
2024-02-02T11:01:33.190Z,98533.48
2024-02-02T11:04:23.198Z,98532.91
2024-02-02T11:07:07.472Z,98522.05
2024-02-02T11:09:46.858Z,98520.56
2024-02-02T11:12:24.729Z,98519.34
2024-02-02T11:15:37.567Z,98520.98
2024-02-02T11:18:09.542Z,98517.67
2024-02-02T11:20:52.961Z,98518.42
2024-02-02T11:23:30.270Z,98516.75
2024-02-02T11:26:01.203Z,98509.73
2024-02-02T11:28:32.182Z,98504.20
2024-02-02T11:31:03.467Z,98507.13
2024-02-02T11:33:47.725Z,98508.37
2024-02-02T11:40:11.926Z,98506.62
2024-02-02T11:42:40.850Z,98508.48
2024-02-02T11:45:13.511Z,98508.57
2024-02-02T11:47:54.096Z,98506.51
2024-02-02T11:50:22.739Z,98507.58
2024-02-02T11:52:59.221Z,98508.40
2024-02-02T11:55:33.173Z,98502.32
2024-02-02T11:58:04.585Z,98500.69
2024-02-02T12:00:35.543Z,98501.61
2024-02-02T12:03:13.159Z,98497.54
2024-02-02T12:06:15.084Z,98495.35
2024-02-02T12:08:58.456Z,98489.83
2024-02-02T12:11:36.725Z,98490.33
2024-02-02T12:14:29.423Z,98486.59
2024-02-02T12:16:58.582Z,98491.63
2024-02-02T12:19:28.131Z,98490.66
2024-02-02T12:21:56.640Z,98487.77
2024-02-02T12:24:25.180Z,98488.79
2024-02-02T12:26:53.598Z,98483.38
2024-02-02T12:29:22.712Z,98481.48
2024-02-02T12:31:51.018Z,98479.27
2024-02-02T12:34:19.259Z,98484.80
2024-02-02T12:36:47.802Z,98490.45
2024-02-02T12:39:16.346Z,98492.48
2024-02-02T12:41:44.806Z,98488.21
2024-02-02T12:44:12.896Z,98488.59
2024-02-02T12:46:48.704Z,98490.45
2024-02-02T12:49:17.234Z,98494.79
2024-02-02T12:51:46.040Z,98498.52
2024-02-02T12:54:14.666Z,98499.46
2024-02-02T12:56:43.073Z,98502.28
2024-02-02T12:59:19.843Z,98506.08
2024-02-02T13:01:51.094Z,98508.09
2024-02-02T13:04:19.537Z,98507.27
2024-02-02T13:06:48.084Z,98504.39
2024-02-02T13:09:33.350Z,98508.28
2024-02-02T13:12:02.138Z,98507.13
2024-02-02T13:14:32.761Z,98505.07
2024-02-02T13:17:12.493Z,98507.05
2024-02-02T13:19:47.225Z,98512.52
2024-02-02T13:22:22.733Z,98516.11
2024-02-02T13:24:55.005Z,98521.47
2024-02-02T13:27:26.838Z,98521.12
2024-02-02T13:30:03.832Z,98520.85
2024-02-02T13:32:35.008Z,98518.61
2024-02-02T13:35:09.856Z,98521.20
2024-02-02T13:37:44.595Z,98522.80
2024-02-02T13:40:14.704Z,98525.40
2024-02-02T13:42:43.589Z,98525.14
2024-02-02T13:45:16.641Z,98525.41
2024-02-02T13:47:57.894Z,98528.20
2024-02-02T13:50:41.818Z,98529.77
2024-02-02T13:53:10.586Z,98532.48
2024-02-02T13:55:39.340Z,98536.21
2024-02-02T13:58:08.009Z,98533.30
2024-02-02T14:00:36.514Z,98532.79
2024-02-02T14:03:12.733Z,98536.08
2024-02-02T14:05:42.799Z,98541.73
2024-02-02T14:08:11.038Z,98540.68
2024-02-02T14:10:46.610Z,98537.79
2024-02-02T14:13:20.373Z,98537.35
2024-02-02T14:15:50.402Z,98538.52
2024-02-02T14:18:22.214Z,98539.64
2024-02-02T14:20:50.922Z,98541.78
2024-02-02T14:23:19.073Z,98544.13
2024-02-02T14:25:47.426Z,98551.84
2024-02-02T14:28:19.927Z,98550.72
2024-02-02T14:30:48.786Z,98559.20
2024-02-02T14:33:24.927Z,98562.09
2024-02-02T14:35:55.321Z,98562.27
2024-02-02T14:38:23.865Z,98564.55
2024-02-02T14:50:21.988Z,98565.63
2024-02-02T14:52:50.144Z,98568.36
2024-02-02T14:55:18.171Z,98570.05
2024-02-02T14:57:47.402Z,98566.33
2024-02-02T15:00:31.134Z,98569.58
2024-02-02T15:03:00.249Z,98572.88
2024-02-02T15:05:29.059Z,98575.17
2024-02-02T15:07:58.416Z,98579.66
2024-02-02T15:10:26.799Z,98576.04
2024-02-02T15:12:55.125Z,98576.58
2024-02-02T15:15:23.931Z,98574.73
2024-02-02T15:17:52.377Z,98573.02
2024-02-02T15:20:20.796Z,98577.98
2024-02-02T15:22:49.192Z,98574.02
2024-02-02T15:25:17.564Z,98572.55
2024-02-02T15:27:45.973Z,98575.54
2024-02-02T15:30:14.864Z,98578.38
2024-02-02T15:32:45.299Z,98582.80
2024-02-02T15:35:16.952Z,98579.09
2024-02-02T15:37:45.270Z,98582.67
2024-02-02T15:40:15.261Z,98586.67
2024-02-02T15:42:43.663Z,98592.23
2024-02-02T15:47:40.418Z,98593.35
2024-02-02T15:50:10.856Z,98591.52
2024-02-02T15:52:39.993Z,98595.11
2024-02-02T15:55:09.063Z,98592.45
2024-02-02T15:57:37.316Z,98592.55
2024-02-02T16:00:11.264Z,98596.16
2024-02-02T16:02:40.062Z,98598.18
2024-02-02T16:05:08.741Z,98598.91
2024-02-02T16:07:38.469Z,98598.77
2024-02-02T16:10:08.619Z,98598.95
2024-02-02T16:12:39.736Z,98599.45
2024-02-02T16:15:12.310Z,98603.54
2024-02-02T16:17:41.276Z,98602.85
2024-02-02T16:20:12.916Z,98604.10
2024-02-02T16:22:42.772Z,98603.58
2024-02-02T16:25:13.667Z,98612.60
2024-02-02T16:27:42.111Z,98614.86
2024-02-02T16:30:12.217Z,98619.33
2024-02-02T16:32:40.734Z,98619.17
2024-02-02T16:35:09.731Z,98626.23
2024-02-02T16:37:39.889Z,98629.98
2024-02-02T16:40:09.704Z,98637.38
2024-02-02T16:42:40.275Z,98637.21
2024-02-02T16:45:09.409Z,98642.19
2024-02-02T16:47:37.534Z,98642.89
2024-02-02T16:50:06.831Z,98643.46
2024-02-02T16:52:35.169Z,98641.45
2024-02-02T16:55:05.112Z,98648.08
2024-02-02T16:57:33.245Z,98649.10
2024-02-02T17:00:04.167Z,98645.35
2024-02-02T17:02:32.439Z,98641.80
2024-02-02T17:05:00.848Z,98635.54
2024-02-02T17:07:30.054Z,98635.42
2024-02-02T17:09:58.533Z,98640.45
2024-02-02T17:12:27.150Z,98645.10
2024-02-02T17:14:55.573Z,98645.88
2024-02-02T17:17:23.928Z,98643.64
2024-02-02T17:19:52.310Z,98639.14
2024-02-02T17:22:20.481Z,98637.68
2024-02-02T17:24:48.671Z,98641.89
2024-02-02T17:27:17.113Z,98632.83
2024-02-02T17:29:45.293Z,98634.05
2024-02-02T17:32:17.238Z,98643.45
2024-02-02T17:34:49.416Z,98652.94
2024-02-02T17:37:18.125Z,98654.91
2024-02-02T17:39:46.778Z,98651.44
2024-02-02T17:42:15.306Z,98649.31
2024-02-02T17:44:44.837Z,98647.88
2024-02-02T17:47:13.364Z,98650.04
2024-02-02T17:49:45.967Z,98648.73
2024-02-02T17:52:17.792Z,98653.65
2024-02-02T17:54:46.399Z,98656.30
2024-02-02T17:57:15.690Z,98655.73
2024-02-02T17:59:44.152Z,98660.48
2024-02-02T18:02:12.658Z,98662.92
2024-02-02T18:04:40.855Z,98659.91
2024-02-02T18:07:11.571Z,98657.83
2024-02-02T18:09:41.833Z,98661.83
2024-02-02T18:12:13.485Z,98661.10
2024-02-02T18:14:42.118Z,98659.92
2024-02-02T18:17:15.431Z,98659.55
2024-02-02T18:19:44.354Z,98658.60
2024-02-02T18:22:12.612Z,98652.84
2024-02-02T18:24:41.276Z,98657.27
2024-02-02T18:27:09.807Z,98660.61
2024-02-02T18:29:37.875Z,98660.36
2024-02-02T18:32:07.979Z,98657.11
2024-02-02T18:34:39.410Z,98658.75
2024-02-02T18:37:09.084Z,98656.20
2024-02-02T18:39:37.522Z,98653.66
2024-02-02T18:42:08.340Z,98649.78
2024-02-02T18:44:36.704Z,98646.46
2024-02-02T18:47:05.456Z,98647.50
2024-02-02T18:49:33.992Z,98644.87
2024-02-02T18:52:02.263Z,98653.54
2024-02-02T18:54:30.359Z,98651.40
2024-02-02T18:57:01.830Z,98656.11
2024-02-02T18:59:30.048Z,98652.95
2024-02-02T19:01:58.609Z,98652.50
2024-02-02T19:04:26.814Z,98654.02
2024-02-02T19:06:55.424Z,98657.02
2024-02-02T19:09:24.361Z,98650.92
2024-02-02T19:11:52.918Z,98647.34
2024-02-02T19:14:22.979Z,98645.95
2024-02-02T19:16:51.440Z,98647.96
2024-02-02T19:19:22.782Z,98646.22
2024-02-02T19:21:52.604Z,98642.98
2024-02-02T19:24:20.960Z,98638.73
2024-02-02T19:26:52.393Z,98635.05
2024-02-02T19:29:22.064Z,98635.19
2024-02-02T19:31:50.106Z,98635.15
2024-02-02T19:34:20.392Z,98632.70
2024-02-02T19:36:48.806Z,98632.37
2024-02-02T19:39:17.237Z,98636.39
2024-02-02T19:41:45.536Z,98640.23
2024-02-02T19:44:14.119Z,98645.99
2024-02-02T19:46:42.666Z,98636.03
2024-02-02T19:49:11.903Z,98638.73
2024-02-02T19:51:40.519Z,98632.13
2024-02-02T19:54:08.983Z,98629.81
2024-02-02T19:56:37.494Z,98634.48
2024-02-02T19:59:06.036Z,98631.14
2024-02-02T20:01:35.562Z,98629.98
2024-02-02T20:04:04.062Z,98628.64
2024-02-02T20:06:32.667Z,98632.35
2024-02-02T20:09:01.010Z,98631.46
2024-02-02T20:11:30.688Z,98624.25
2024-02-02T20:13:59.084Z,98624.09
2024-02-02T20:16:27.470Z,98623.55
2024-02-02T20:18:56.015Z,98627.04
2024-02-02T20:21:27.526Z,98628.13
2024-02-02T20:23:56.697Z,98621.48
2024-02-02T20:26:25.055Z,98615.08
2024-02-02T20:28:54.174Z,98609.11
2024-02-02T20:31:22.556Z,98609.36
2024-02-02T20:33:56.697Z,98611.82
2024-02-02T20:36:28.681Z,98611.52
2024-02-02T20:38:57.194Z,98620.63
2024-02-02T20:41:28.352Z,98625.01
2024-02-02T20:43:58.576Z,98620.52
2024-02-02T20:46:27.524Z,98616.07
2024-02-02T20:48:55.928Z,98607.09
2024-02-02T20:51:24.325Z,98605.54
2024-02-02T20:53:52.786Z,98600.56
2024-02-02T20:56:21.342Z,98603.25
2024-02-02T20:58:49.445Z,98602.02
2024-02-02T21:01:17.964Z,98602.59
2024-02-02T21:03:46.269Z,98591.93
2024-02-02T21:06:14.678Z,98591.61
2024-02-02T21:08:44.587Z,98593.33
2024-02-02T21:11:12.833Z,98594.05
2024-02-02T21:13:41.298Z,98596.14
2024-02-02T21:16:09.713Z,98594.14
2024-02-02T21:18:38.478Z,98596.43
2024-02-02T21:21:07.615Z,98594.14
2024-02-02T21:23:36.066Z,98587.82
2024-02-02T21:26:04.853Z,98585.37
2024-02-02T21:28:33.048Z,98585.33
2024-02-02T21:31:01.690Z,98584.04
2024-02-02T21:33:30.397Z,98578.38
2024-02-02T21:36:03.628Z,98576.73
2024-02-02T21:38:32.483Z,98577.59
2024-02-02T21:41:03.075Z,98574.77
2024-02-02T21:43:31.304Z,98575.79
2024-02-02T21:45:59.724Z,98576.95
2024-02-02T21:48:28.016Z,98572.86
2024-02-02T21:50:56.357Z,98570.62
2024-02-02T21:53:24.624Z,98569.71
2024-02-02T21:55:53.578Z,98570.81
2024-02-02T21:58:22.160Z,98570.92
2024-02-02T22:00:50.340Z,98567.52
2024-02-02T22:03:18.765Z,98566.84
2024-02-02T22:05:47.250Z,98566.66
2024-02-02T22:08:15.894Z,98565.04
2024-02-02T22:10:43.952Z,98559.55
2024-02-02T22:13:12.454Z,98557.84
2024-02-02T22:15:41.008Z,98556.46
2024-02-02T22:18:11.418Z,98558.32
2024-02-02T22:20:40.551Z,98552.18
2024-02-02T22:23:08.620Z,98549.52
2024-02-02T22:25:36.909Z,98546.92
2024-02-02T22:30:35.321Z,98548.20
2024-02-02T22:33:03.990Z,98544.20
2024-02-02T22:35:32.565Z,98533.45
2024-02-02T22:38:00.849Z,98535.84
2024-02-02T22:40:29.280Z,98532.22
2024-02-02T22:42:57.463Z,98535.98
2024-02-02T22:45:26.002Z,98532.68
2024-02-02T22:47:54.503Z,98529.42
2024-02-02T22:50:22.960Z,98532.53
2024-02-02T22:52:51.387Z,98532.24
2024-02-02T22:55:20.279Z,98532.16
2024-02-02T22:57:48.640Z,98533.14
2024-02-02T23:00:20.884Z,98534.53
2024-02-02T23:02:49.320Z,98522.03
2024-02-02T23:05:17.805Z,98515.33
2024-02-02T23:07:46.049Z,98513.17
2024-02-02T23:10:14.433Z,98514.06
2024-02-02T23:12:42.617Z,98507.66
2024-02-02T23:15:11.465Z,98503.52
2024-02-02T23:17:39.843Z,98499.48
2024-02-02T23:20:09.925Z,98500.56
2024-02-02T23:22:38.795Z,98500.17
2024-02-02T23:25:07.879Z,98494.63
2024-02-02T23:27:37.929Z,98494.94
2024-02-02T23:30:07.778Z,98485.33
2024-02-02T23:32:36.552Z,98484.76
2024-02-02T23:35:05.630Z,98486.42
2024-02-02T23:37:34.788Z,98481.11
2024-02-02T23:40:04.741Z,98483.08
2024-02-02T23:42:33.148Z,98477.36
2024-02-02T23:45:01.565Z,98473.18
2024-02-02T23:47:30.033Z,98472.77
2024-02-02T23:49:58.506Z,98477.54
2024-02-02T23:52:26.935Z,98474.33
2024-02-02T23:54:55.664Z,98466.40
2024-02-02T23:57:25.887Z,98463.35
2024-02-02T23:59:54.418Z,98458.41
